createdAt,value
2023-05-07T00:00:24.955Z,1.700
2023-05-07T00:01:26.590Z,1.799
2023-05-07T00:04:24.109Z,1.899
2023-05-07T00:05:24.345Z,2
2023-05-07T00:07:23.747Z,1.799
2023-05-07T00:08:23.789Z,1.600
2023-05-07T00:10:24.380Z,1.799
2023-05-07T00:12:24.241Z,1.600
2023-05-07T00:13:23.897Z,1.799
2023-05-07T00:14:23.780Z,1.399
2023-05-07T00:15:24.695Z,1.700
2023-05-07T00:16:24.467Z,1.5
2023-05-07T00:17:24.135Z,1.700
2023-05-07T00:18:23.602Z,1.899
2023-05-07T00:19:24.254Z,1.700
2023-05-07T00:20:24.119Z,1.600
2023-05-07T00:22:24.529Z,1.5
2023-05-07T00:23:24.007Z,1.600
2023-05-07T00:24:23.803Z,1.399
2023-05-07T00:25:24.222Z,1.600
2023-05-07T00:26:23.881Z,1.5
2023-05-07T00:27:23.750Z,1.399
2023-05-07T00:30:24.336Z,1.700
2023-05-07T00:31:24.054Z,1.5
2023-05-07T00:32:23.714Z,1.600
2023-05-07T00:33:24.292Z,1.399
2023-05-07T00:36:23.964Z,1.299
2023-05-07T00:37:24.237Z,1.5
2023-05-07T00:38:23.755Z,1.399
2023-05-07T00:41:24.187Z,1.299
2023-05-07T00:43:24.168Z,1.399
2023-05-07T00:47:24.072Z,1.5
2023-05-07T00:48:23.771Z,1.600
2023-05-07T00:49:24.098Z,1.700
2023-05-07T00:50:23.971Z,1.5
2023-05-07T00:51:23.781Z,1.299
2023-05-07T00:52:24.007Z,1.5
2023-05-07T00:54:24.359Z,1.399
2023-05-07T00:55:23.706Z,1.5
2023-05-07T00:57:23.866Z,1.399
2023-05-07T00:58:24.431Z,1.200
2023-05-07T00:59:23.881Z,1.399
2023-05-07T01:00:24.953Z,1.299
2023-05-07T01:01:23.744Z,1.200
2023-05-07T01:02:24.452Z,1.299
2023-05-07T01:03:23.928Z,1.399
2023-05-07T01:05:23.854Z,1.5
2023-05-07T01:06:23.761Z,1.299
2023-05-07T01:08:24.263Z,1.200
2023-05-07T01:10:23.926Z,1.299
2023-05-07T01:11:24.168Z,1.100
2023-05-07T01:12:23.929Z,1.399
2023-05-07T01:13:23.890Z,1.100
2023-05-07T01:14:23.538Z,1.399
2023-05-07T01:15:24.266Z,1.299
2023-05-07T01:16:23.494Z,1.399
2023-05-07T01:17:24.191Z,1.299
2023-05-07T01:18:23.783Z,1.399
2023-05-07T01:20:23.703Z,1.5
2023-05-07T01:21:23.982Z,1.299
2023-05-07T01:22:24.414Z,1.399
2023-05-07T01:23:23.509Z,1.5
2023-05-07T01:24:23.709Z,1.299
2023-05-07T01:25:24.480Z,1.399
2023-05-07T01:27:24.170Z,1.299
2023-05-07T01:28:23.777Z,1.399
2023-05-07T01:29:24.009Z,1.299
2023-05-07T01:32:24.488Z,1.600
2023-05-07T01:34:24.113Z,1.399
2023-05-07T01:35:23.898Z,1.600
2023-05-07T01:37:24.221Z,1.799
2023-05-07T01:38:23.841Z,1.600
2023-05-07T01:39:24.392Z,1.700
2023-05-07T01:40:24.095Z,1.600
2023-05-07T01:43:23.441Z,1.700
2023-05-07T01:44:23.774Z,1.799
2023-05-07T01:45:23.950Z,1.600
2023-05-07T01:46:23.742Z,1.700
2023-05-07T01:48:23.648Z,1.799
2023-05-07T01:50:23.657Z,2
2023-05-07T01:51:23.993Z,1.700
2023-05-07T01:52:24.456Z,1.799
2023-05-07T01:54:23.880Z,1.700
2023-05-07T01:55:24.456Z,1.799
2023-05-07T01:57:23.934Z,2
2023-05-07T01:58:23.719Z,2.099
2023-05-07T01:59:24.282Z,1.899
2023-05-07T02:04:23.408Z,2
2023-05-07T02:05:24.376Z,1.700
2023-05-07T02:07:24.233Z,2
2023-05-07T02:08:23.751Z,1.600
2023-05-07T02:09:24.344Z,1.799
2023-05-07T02:14:23.633Z,1.899
2023-05-07T02:15:24.655Z,1.799
2023-05-07T02:17:23.814Z,2
2023-05-07T02:18:23.369Z,1.700
2023-05-07T02:19:23.881Z,1.899
2023-05-07T02:20:24.698Z,1.700
2023-05-07T02:22:23.857Z,1.899
2023-05-07T02:23:23.375Z,2
2023-05-07T02:24:24.010Z,1.799
2023-05-07T02:25:23.966Z,1.899
2023-05-07T02:27:24.131Z,1.700
2023-05-07T02:29:24.489Z,1.799
2023-05-07T02:31:23.943Z,1.700
2023-05-07T02:35:24.410Z,1.799
2023-05-07T02:36:23.843Z,1.700
2023-05-07T02:37:24.440Z,1.799
2023-05-07T02:39:23.649Z,1.600
2023-05-07T02:40:24.444Z,1.799
2023-05-07T02:41:23.955Z,2.099
2023-05-07T02:42:23.828Z,2
2023-05-07T02:43:24.054Z,1.899
2023-05-07T02:44:23.752Z,1.799
2023-05-07T02:45:24.641Z,1.899
2023-05-07T02:46:24.220Z,1.700
2023-05-07T02:51:26.088Z,1.600
2023-05-07T02:52:24.113Z,1.700
2023-05-07T02:53:23.817Z,1.799
2023-05-07T02:55:24.448Z,1.700
2023-05-07T02:56:24.148Z,1.799
2023-05-07T02:58:24.062Z,1.700
2023-05-07T02:59:24.221Z,1.799
2023-05-07T03:00:25.432Z,1.600
2023-05-07T03:01:24.647Z,1.700
2023-05-07T03:04:24.257Z,1.799
2023-05-07T03:05:24.266Z,1.700
2023-05-07T03:06:24.000Z,1.799
2023-05-07T03:07:23.906Z,1.600
2023-05-07T03:08:24.429Z,1.700
2023-05-07T03:09:24.059Z,1.799
2023-05-07T03:10:24.052Z,1.600
2023-05-07T03:12:24.409Z,1.5
2023-05-07T03:13:24.365Z,1.600
2023-05-07T03:14:23.962Z,1.700
2023-05-07T03:15:23.947Z,1.799
2023-05-07T03:16:23.973Z,1.600
2023-05-07T03:17:23.759Z,1.899
2023-05-07T03:18:23.589Z,1.700
2023-05-07T03:20:23.754Z,1.5
2023-05-07T03:22:23.938Z,1.399
2023-05-07T03:26:23.601Z,1.700
2023-05-07T03:27:24.229Z,1.399
2023-05-07T03:28:23.903Z,1.600
2023-05-07T03:30:24.187Z,1.700
2023-05-07T03:31:23.748Z,1.5
2023-05-07T03:32:24.444Z,1.600
2023-05-07T03:35:24.133Z,1.700
2023-05-07T03:36:24.129Z,1.600
2023-05-07T03:37:23.860Z,1.700
2023-05-07T03:38:23.638Z,1.5
2023-05-07T03:40:24.121Z,1.600
2023-05-07T03:41:23.641Z,1.5
2023-05-07T03:42:24.495Z,1.399
2023-05-07T03:43:24.429Z,1.600
2023-05-07T03:44:24.563Z,1.5
2023-05-07T03:45:24.905Z,1.600
2023-05-07T03:46:23.577Z,1.299
2023-05-07T03:47:24.015Z,1.399
2023-05-07T03:48:24.148Z,1.5
2023-05-07T03:49:24.166Z,1.399
2023-05-07T03:51:24.516Z,1.600
2023-05-07T03:52:24.413Z,1.399
2023-05-07T03:58:24.127Z,1.299
2023-05-07T03:59:24.418Z,1.399
2023-05-07T04:00:25.219Z,1.5
2023-05-07T04:02:24.169Z,1.399
2023-05-07T04:04:24.743Z,1.299
2023-05-07T04:06:23.764Z,1.399
2023-05-07T04:09:24.307Z,1.600
2023-05-07T04:10:24.399Z,1.200
2023-05-07T04:11:24.090Z,1.399
2023-05-07T04:13:23.873Z,1.200
2023-05-07T04:14:24.239Z,1.5
2023-05-07T04:15:24.299Z,1.200
2023-05-07T04:16:23.971Z,1.5
2023-05-07T04:17:23.956Z,1.399
2023-05-07T04:18:24.071Z,1.299
2023-05-07T04:19:23.588Z,1.200
2023-05-07T04:20:24.372Z,1.299
2023-05-07T04:21:24.026Z,1.200
2023-05-07T04:22:24.120Z,1.399
2023-05-07T04:23:24.149Z,1.299
2023-05-07T04:28:23.761Z,1.600
2023-05-07T04:29:29.001Z,1.5
2023-05-07T04:32:24.355Z,1.600
2023-05-07T04:33:24.230Z,1.399
2023-05-07T04:34:23.923Z,1.600
2023-05-07T04:36:24.276Z,1.799
2023-05-07T04:37:24.394Z,1.700
2023-05-07T04:38:24.358Z,1.600
2023-05-07T04:39:24.096Z,1.399
2023-05-07T04:41:24.269Z,1.5
2023-05-07T04:42:24.160Z,1.600
2023-05-07T04:43:24.113Z,1.799
2023-05-07T04:44:23.986Z,1.600
2023-05-07T04:46:24.602Z,1.700
2023-05-07T04:47:24.680Z,1.600
2023-05-07T04:49:24.386Z,1.700
2023-05-07T04:50:24.922Z,1.399
2023-05-07T04:51:24.174Z,1.600
2023-05-07T04:52:27.237Z,1.5
2023-05-07T04:53:24.586Z,1.399
2023-05-07T04:57:24.239Z,1.299
2023-05-07T04:58:24.193Z,1.5
2023-05-07T04:59:24.096Z,1.399
2023-05-07T05:01:43.330Z,1.200
2023-05-07T05:02:24.718Z,1.399
2023-05-07T05:03:23.790Z,1.299
2023-05-07T05:04:23.897Z,1.399
2023-05-07T05:05:24.037Z,1.299
2023-05-07T05:06:23.973Z,1.399
2023-05-07T05:07:24.036Z,1.299
2023-05-07T05:08:24.275Z,1.399
2023-05-07T05:09:23.983Z,1.200
2023-05-07T05:11:24.568Z,1.5
2023-05-07T05:12:24.342Z,1.299
2023-05-07T05:13:24.069Z,1.399
2023-05-07T05:15:24.852Z,1.600
2023-05-07T05:16:24.255Z,1.399
2023-05-07T05:19:24.006Z,1.200
2023-05-07T05:20:24.429Z,1.399
2023-05-07T05:22:24.315Z,1.5
2023-05-07T05:23:23.975Z,1.399
2023-05-07T05:24:24.048Z,1.600
2023-05-07T05:25:24.322Z,1.399
2023-05-07T05:26:24.407Z,11.10
2023-05-07T05:27:24.280Z,6.400
2023-05-07T05:28:24.115Z,5.199
2023-05-07T05:29:23.885Z,4.900
2023-05-07T05:30:24.472Z,4
2023-05-07T05:31:24.411Z,3.299
2023-05-07T05:32:24.509Z,3.099
2023-05-07T05:33:24.432Z,2.400
2023-05-07T05:34:24.357Z,2.5
2023-05-07T05:35:24.307Z,2.799
2023-05-07T05:36:24.677Z,2.299
2023-05-07T05:37:24.447Z,2.599
2023-05-07T05:38:24.393Z,2.200
2023-05-07T05:39:24.358Z,2.299
2023-05-07T05:40:24.430Z,2.099
2023-05-07T05:41:24.223Z,2.200
2023-05-07T05:42:24.189Z,2.099
2023-05-07T05:44:24.351Z,2.200
2023-05-07T05:45:24.408Z,1.799
2023-05-07T05:46:24.340Z,2.099
2023-05-07T05:47:24.721Z,2
2023-05-07T05:48:23.914Z,1.799
2023-05-07T05:49:24.300Z,1.600
2023-05-07T05:50:24.383Z,2.299
2023-05-07T05:51:24.612Z,1.799
2023-05-07T05:53:24.588Z,1.5
2023-05-07T05:54:23.860Z,1.799
2023-05-07T05:55:24.324Z,1.600
2023-05-07T05:56:24.489Z,1.700
2023-05-07T05:57:25.983Z,1.600
2023-05-07T05:58:24.759Z,1.899
2023-05-07T05:59:24.764Z,1.600
2023-05-07T06:01:24.184Z,1.5
2023-05-07T06:04:24.877Z,1.299
2023-05-07T06:05:24.466Z,1.399
2023-05-07T06:08:24.421Z,1.799
2023-05-07T06:09:24.680Z,1.5
2023-05-07T06:10:24.782Z,1.600
2023-05-07T06:13:24.420Z,1.700
2023-05-07T06:14:24.381Z,1.899
2023-05-07T06:15:24.755Z,1.799
2023-05-07T06:16:24.278Z,1.899
2023-05-07T06:17:24.395Z,1.700
2023-05-07T06:18:24.615Z,1.899
2023-05-07T06:19:24.157Z,1.700
2023-05-07T06:20:24.455Z,2
2023-05-07T06:21:24.278Z,1.700
2023-05-07T06:22:24.633Z,1.899
2023-05-07T06:23:24.785Z,1.700
2023-05-07T06:24:24.586Z,1.799
2023-05-07T06:25:24.785Z,1.899
2023-05-07T06:26:24.026Z,1.700
2023-05-07T06:29:24.338Z,1.600
2023-05-07T06:30:24.778Z,1.799
2023-05-07T06:31:24.258Z,1.899
2023-05-07T06:32:24.624Z,1.399
2023-05-07T06:34:24.120Z,1.600
2023-05-07T06:35:24.197Z,1.5
2023-05-07T06:36:24.108Z,1.700
2023-05-07T06:37:24.263Z,1.399
2023-05-07T06:38:24.468Z,1.700
2023-05-07T06:39:24.721Z,1.5
2023-05-07T06:40:24.640Z,1.600
2023-05-07T06:41:23.819Z,2
2023-05-07T06:43:24.005Z,2.099
2023-05-07T06:44:23.950Z,1.899
2023-05-07T06:46:24.180Z,2.099
2023-05-07T06:47:24.623Z,2.200
2023-05-07T06:48:24.656Z,2
2023-05-07T06:49:24.876Z,2.099
2023-05-07T06:50:24.978Z,1.899
2023-05-07T06:52:24.409Z,2
2023-05-07T06:53:24.314Z,1.799
2023-05-07T06:54:24.453Z,2
2023-05-07T06:55:24.953Z,1.899
2023-05-07T06:56:24.041Z,2
2023-05-07T06:57:24.563Z,1.799
2023-05-07T06:58:24.468Z,1.899
2023-05-07T06:59:24.962Z,1.700
2023-05-07T07:00:24.896Z,1.799
2023-05-07T07:01:24.320Z,2
2023-05-07T07:02:29.786Z,2.299
2023-05-07T07:03:23.927Z,1.899
2023-05-07T07:04:24.839Z,1.799
2023-05-07T07:05:24.285Z,1.600
2023-05-07T07:06:24.420Z,1.799
2023-05-07T07:07:24.713Z,1.899
2023-05-07T07:08:24.727Z,1.5
2023-05-07T07:09:24.288Z,1.600
2023-05-07T07:11:24.286Z,1.5
2023-05-07T07:12:24.710Z,1.799
2023-05-07T07:13:24.043Z,1.600
2023-05-07T07:14:24.174Z,1.5
2023-05-07T07:15:24.372Z,1.700
2023-05-07T07:17:24.701Z,1.5
2023-05-07T07:18:24.304Z,1.600
2023-05-07T07:19:24.345Z,1.899
2023-05-07T07:20:38.402Z,1.600
2023-05-07T07:22:24.554Z,1.700
2023-05-07T07:24:24.583Z,1.600
2023-05-07T07:26:24.192Z,1.700
2023-05-07T07:27:24.750Z,1.600
2023-05-07T07:28:24.052Z,1.899
2023-05-07T07:29:24.212Z,1.799
2023-05-07T07:30:24.804Z,1.700
2023-05-07T07:31:24.269Z,1.799
2023-05-07T07:32:25.127Z,1.600
2023-05-07T07:33:23.953Z,1.799
2023-05-07T07:35:25.754Z,1.700
2023-05-07T07:36:29.476Z,1.799
2023-05-07T07:38:24.013Z,1.700
2023-05-07T07:39:24.464Z,1.600
2023-05-07T07:41:24.484Z,1.5
2023-05-07T07:43:24.293Z,1.700
2023-05-07T07:44:24.040Z,1.299
2023-05-07T07:45:24.364Z,1.5
2023-05-07T07:46:24.311Z,1.799
2023-05-07T07:47:24.695Z,1.700
2023-05-07T07:50:39.983Z,1.799
2023-05-07T07:51:24.335Z,1.700
2023-05-07T07:52:24.679Z,1.899
2023-05-07T07:54:24.307Z,1.700
2023-05-07T07:55:24.892Z,1.799
2023-05-07T07:58:24.198Z,1.700
2023-05-07T07:59:24.479Z,1.899
2023-05-07T08:00:25.811Z,1.799
2023-05-07T08:06:24.548Z,1.5
2023-05-07T08:07:24.159Z,1.700
2023-05-07T08:08:24.359Z,1.899
2023-05-07T08:09:24.376Z,1.700
2023-05-07T08:10:24.952Z,1.600
2023-05-07T08:12:24.336Z,1.5
2023-05-07T08:13:24.641Z,1.799
2023-05-07T08:14:23.709Z,1.700
2023-05-07T08:15:24.353Z,1.399
2023-05-07T08:16:24.646Z,1.600
2023-05-07T08:17:24.112Z,1.5
2023-05-07T08:19:24.488Z,1.600
2023-05-07T08:20:25.012Z,1.700
2023-05-07T08:21:24.290Z,1.5
2023-05-07T08:24:24.727Z,1.299
2023-05-07T08:25:24.981Z,1.600
2023-05-07T08:26:23.934Z,1.700
2023-05-07T08:27:24.114Z,1.5
2023-05-07T08:29:24.289Z,1.600
2023-05-07T08:30:24.763Z,1.5
2023-05-07T08:31:23.867Z,1.299
2023-05-07T08:32:24.263Z,1.399
2023-05-07T08:34:24.341Z,1.5
2023-05-07T08:37:24.419Z,1.600
2023-05-07T08:38:24.808Z,1.399
2023-05-07T08:39:24.676Z,1.5
2023-05-07T08:40:24.469Z,1.299
2023-05-07T08:41:24.548Z,1.5
2023-05-07T08:43:24.006Z,1.600
2023-05-07T08:44:24.551Z,1.5
2023-05-07T08:45:24.902Z,1.799
2023-05-07T08:46:24.152Z,1.600
2023-05-07T08:47:24.788Z,1.5
2023-05-07T08:48:24.171Z,1.299
2023-05-07T08:49:24.456Z,1.5
2023-05-07T08:50:24.922Z,1.600
2023-05-07T08:51:24.194Z,1.299
2023-05-07T08:53:24.584Z,1.5
2023-05-07T08:54:24.271Z,1.399
2023-05-07T08:55:25.049Z,1.5
2023-05-07T08:56:24.647Z,1.700
2023-05-07T08:57:24.189Z,1.399
2023-05-07T08:58:24.648Z,1.5
2023-05-07T08:59:24.412Z,1.700
2023-05-07T09:00:24.974Z,1.5
2023-05-07T09:01:24.355Z,1.600
2023-05-07T09:02:24.862Z,1.799
2023-05-07T09:03:24.189Z,1.5
2023-05-07T09:04:24.670Z,1.899
2023-05-07T09:05:24.293Z,1.600
2023-05-07T09:06:24.650Z,1.700
2023-05-07T09:07:24.010Z,1.600
2023-05-07T09:08:24.400Z,1.700
2023-05-07T09:09:24.601Z,1.799
2023-05-07T09:10:24.283Z,1.700
2023-05-07T09:11:24.369Z,1.799
2023-05-07T09:12:24.731Z,2.099
2023-05-07T09:13:24.609Z,1.799
2023-05-07T09:14:24.638Z,1.700
2023-05-07T09:18:24.284Z,1.600
2023-05-07T09:20:24.795Z,1.799
2023-05-07T09:21:29.220Z,2
2023-05-07T09:22:24.756Z,1.799
2023-05-07T09:23:24.265Z,2.200
2023-05-07T09:25:29.731Z,2
2023-05-07T09:26:24.437Z,1.899
2023-05-07T09:27:24.962Z,1.700
2023-05-07T09:28:24.395Z,1.799
2023-05-07T09:29:24.670Z,1.899
2023-05-07T09:30:24.694Z,1.799
2023-05-07T09:31:24.179Z,1.899
2023-05-07T09:32:24.619Z,2
2023-05-07T09:33:24.117Z,1.799
2023-05-07T09:38:24.039Z,1.899
2023-05-07T09:39:24.245Z,1.700
2023-05-07T09:40:24.688Z,2
2023-05-07T09:41:24.005Z,2.900
2023-05-07T09:42:24.445Z,3.099
2023-05-07T09:43:24.582Z,2.700
2023-05-07T09:44:24.209Z,2.5
2023-05-07T09:45:25.101Z,2.700
2023-05-07T09:46:24.272Z,2.099
2023-05-07T09:47:24.822Z,1.700
2023-05-07T09:48:24.309Z,2
2023-05-07T09:49:24.498Z,1.600
2023-05-07T09:50:24.776Z,1.700
2023-05-07T09:51:24.348Z,2
2023-05-07T09:54:24.220Z,1.799
2023-05-07T09:56:24.379Z,1.899
2023-05-07T09:57:24.123Z,2.099
2023-05-07T09:58:24.955Z,2
2023-05-07T10:00:25.298Z,2.200
2023-05-07T10:01:24.771Z,2.799
2023-05-07T10:02:24.232Z,2.099
2023-05-07T10:03:24.213Z,2.299
2023-05-07T10:04:24.851Z,2.099
2023-05-07T10:05:24.394Z,2
2023-05-07T10:06:24.032Z,2.200
2023-05-07T10:07:24.319Z,2
2023-05-07T10:08:24.500Z,1.700
2023-05-07T10:09:24.142Z,1.899
2023-05-07T10:10:24.711Z,1.799
2023-05-07T10:11:24.248Z,1.899
2023-05-07T10:13:24.388Z,1.799
2023-05-07T10:15:25.066Z,1.899
2023-05-07T10:16:24.366Z,1.700
2023-05-07T10:18:24.933Z,1.799
2023-05-07T10:21:24.183Z,1.5
2023-05-07T10:22:24.221Z,1.799
2023-05-07T10:24:24.494Z,1.700
2023-05-07T10:25:24.592Z,1.600
2023-05-07T10:26:23.983Z,1.799
2023-05-07T10:27:24.526Z,1.600
2023-05-07T10:28:24.098Z,1.799
2023-05-07T10:29:24.168Z,1.600
2023-05-07T10:30:27.402Z,1.700
2023-05-07T10:32:24.740Z,2
2023-05-07T10:33:24.476Z,1.899
2023-05-07T10:35:24.825Z,1.600
2023-05-07T10:36:24.683Z,1.799
2023-05-07T10:39:24.528Z,1.700
2023-05-07T10:40:24.194Z,1.600
2023-05-07T10:42:24.485Z,1.5
2023-05-07T10:43:24.770Z,1.399
2023-05-07T10:44:24.174Z,1.700
2023-05-07T10:45:25.361Z,1.799
2023-05-07T10:46:24.903Z,1.700
2023-05-07T10:47:25.030Z,1.399
2023-05-07T10:48:30.333Z,1.700
2023-05-07T10:49:24.798Z,1.600
2023-05-07T10:50:24.794Z,1.700
2023-05-07T10:51:24.189Z,1.600
2023-05-07T10:52:24.585Z,1.799
2023-05-07T10:54:24.871Z,1.600
2023-05-07T10:55:24.651Z,1.399
2023-05-07T10:56:24.106Z,1.700
2023-05-07T10:57:24.893Z,1.5
2023-05-07T10:58:31.470Z,1.600
2023-05-07T10:59:24.894Z,1.5
2023-05-07T11:01:24.428Z,1.600
2023-05-07T11:04:23.875Z,1.399
2023-05-07T11:06:29.283Z,1.600
2023-05-07T11:08:24.541Z,1.799
2023-05-07T11:10:24.347Z,1.600
2023-05-07T11:11:24.400Z,1.799
2023-05-07T11:12:24.457Z,2
2023-05-07T11:13:24.466Z,1.700
2023-05-07T11:14:24.902Z,2.099
2023-05-07T11:15:25.063Z,2.200
2023-05-07T11:16:24.494Z,3
2023-05-07T11:17:24.406Z,2.400
2023-05-07T11:18:24.585Z,2.5
2023-05-07T11:19:24.747Z,3
2023-05-07T11:20:24.875Z,3.299
2023-05-07T11:21:24.359Z,3.200
2023-05-07T11:22:24.732Z,3.5
2023-05-07T11:23:24.104Z,5.099
2023-05-07T11:24:24.343Z,5.199
2023-05-07T11:25:24.529Z,5.099
2023-05-07T11:26:24.236Z,4.400
2023-05-07T11:27:24.750Z,3.5
2023-05-07T11:28:24.311Z,3.799
2023-05-07T11:29:24.609Z,3.599
2023-05-07T11:30:24.638Z,3.400
2023-05-07T11:31:24.254Z,3.099
2023-05-07T11:32:24.708Z,2.700
2023-05-07T11:33:24.533Z,2.099
2023-05-07T11:34:24.760Z,2.5
2023-05-07T11:36:24.485Z,2.299
2023-05-07T11:37:24.365Z,2.200
2023-05-07T11:38:25.013Z,2.400
2023-05-07T11:39:24.419Z,2.700
2023-05-07T11:40:24.816Z,2.799
2023-05-07T11:41:24.357Z,2.299
2023-05-07T11:42:24.871Z,2.599
2023-05-07T11:43:24.880Z,2.799
2023-05-07T11:44:24.896Z,2.700
2023-05-07T11:45:24.991Z,2.299
2023-05-07T11:46:24.382Z,2.5
2023-05-07T11:49:24.915Z,2.599
2023-05-07T11:50:24.179Z,2.299
2023-05-07T11:51:24.529Z,2.5
2023-05-07T11:53:24.906Z,2.299
2023-05-07T11:54:32.595Z,2.200
2023-05-07T11:56:24.493Z,2.099
2023-05-07T11:57:24.890Z,2
2023-05-07T11:58:24.637Z,2.200
2023-05-07T11:59:24.378Z,2.099
2023-05-07T12:00:33.494Z,2.299
2023-05-07T12:02:38.603Z,2.200
2023-05-07T12:04:24.697Z,2.299
2023-05-07T12:05:24.992Z,2.5
2023-05-07T12:06:24.494Z,2.099
2023-05-07T12:07:24.907Z,2.200
2023-05-07T12:08:24.349Z,2.400
2023-05-07T12:09:24.868Z,2.200
2023-05-07T12:10:38.602Z,2.400
2023-05-07T12:11:24.885Z,2.200
2023-05-07T12:12:24.638Z,2.400
2023-05-07T12:13:24.166Z,2.099
2023-05-07T12:14:25.029Z,2.5
2023-05-07T12:15:25.101Z,2.400
2023-05-07T12:16:24.732Z,2.700
2023-05-07T12:17:24.252Z,2.5
2023-05-07T12:18:24.638Z,2.799
2023-05-07T12:19:24.917Z,3.099
2023-05-07T12:20:24.663Z,3.200
2023-05-07T12:21:24.304Z,3.599
2023-05-07T12:22:24.700Z,3.200
2023-05-07T12:23:24.137Z,3
2023-05-07T12:24:24.412Z,3.099
2023-05-07T12:25:24.590Z,2.799
2023-05-07T12:27:24.676Z,2.400
2023-05-07T12:29:24.561Z,2.200
2023-05-07T12:30:46.347Z,2.700
2023-05-07T12:31:24.181Z,2.400
2023-05-07T12:32:24.829Z,2.5
2023-05-07T12:33:24.338Z,2.200
2023-05-07T12:35:24.388Z,2.5
2023-05-07T12:36:24.546Z,2.299
2023-05-07T12:37:24.215Z,2.099
2023-05-07T12:38:24.623Z,2.5
2023-05-07T12:39:24.578Z,2.200
2023-05-07T12:40:24.991Z,2.299
2023-05-07T12:42:24.852Z,2.599
2023-05-07T12:43:24.104Z,2.700
2023-05-07T12:44:24.822Z,2.5
2023-05-07T12:45:24.735Z,2.400
2023-05-07T12:46:24.427Z,2.5
2023-05-07T12:47:25.032Z,2.400
2023-05-07T12:48:24.534Z,2.200
2023-05-07T12:50:24.681Z,2.400
2023-05-07T12:51:24.532Z,2.5
2023-05-07T12:52:24.576Z,2.400
2023-05-07T12:53:24.233Z,2.299
2023-05-07T12:54:24.557Z,2.400
2023-05-07T12:57:28.820Z,2.299
2023-05-07T13:01:24.577Z,2.200
2023-05-07T13:02:24.592Z,2.299
2023-05-07T13:03:24.385Z,2.5
2023-05-07T13:04:24.451Z,2.599
2023-05-07T13:05:25.144Z,2.400
2023-05-07T13:06:25.030Z,2.700
2023-05-07T13:07:24.859Z,2.5
2023-05-07T13:08:25.158Z,2.400
2023-05-07T13:09:24.832Z,2.700
2023-05-07T13:10:24.881Z,2.599
2023-05-07T13:11:24.457Z,2.400
2023-05-07T13:12:24.624Z,2.5
2023-05-07T13:13:24.168Z,2.400
2023-05-07T13:14:24.548Z,2.5
2023-05-07T13:15:24.771Z,2.299
2023-05-07T13:17:24.444Z,2.5
2023-05-07T13:18:24.373Z,2.200
2023-05-07T13:19:24.003Z,2.299
2023-05-07T13:20:24.656Z,2.200
2023-05-07T13:21:24.168Z,2.099
2023-05-07T13:22:24.617Z,2.400
2023-05-07T13:23:24.095Z,2
2023-05-07T13:24:24.723Z,2.200
2023-05-07T13:25:24.976Z,2.299
2023-05-07T13:26:26.882Z,2
2023-05-07T13:27:24.273Z,2.099
2023-05-07T13:28:24.637Z,2.200
2023-05-07T13:29:24.690Z,1.899
2023-05-07T13:30:25.366Z,2
2023-05-07T13:31:24.439Z,2.299
2023-05-07T13:32:24.683Z,2.200
2023-05-07T13:33:24.500Z,2.400
2023-05-07T13:34:24.714Z,2.299
2023-05-07T13:35:24.495Z,2.200
2023-05-07T13:36:25.295Z,2.400
2023-05-07T13:37:24.113Z,2.5
2023-05-07T13:38:25.131Z,2.599
2023-05-07T13:39:24.683Z,2.799
2023-05-07T13:40:24.411Z,2.700
2023-05-07T13:41:24.869Z,2.799
2023-05-07T13:42:24.262Z,2.599
2023-05-07T13:44:24.431Z,2.900
2023-05-07T13:45:25.069Z,2.700
2023-05-07T13:46:24.508Z,2.799
2023-05-07T13:47:25.156Z,3
2023-05-07T13:48:24.359Z,3.099
2023-05-07T13:50:24.402Z,2.900
2023-05-07T13:51:25.012Z,2.599
2023-05-07T13:52:24.556Z,2.799
2023-05-07T13:53:25.161Z,3.099
2023-05-07T13:54:25.056Z,2.599
2023-05-07T13:55:25.032Z,3.099
2023-05-07T13:56:24.459Z,3.299
2023-05-07T13:58:24.422Z,3.400
2023-05-07T14:00:25.736Z,3.299
2023-05-07T14:02:25.602Z,3.5
2023-05-07T14:04:24.891Z,3.599
2023-05-07T14:06:23.886Z,3.400
2023-05-07T14:07:29.309Z,3.700
2023-05-07T14:08:24.730Z,3.5
2023-05-07T14:10:24.890Z,3.400
2023-05-07T14:11:24.294Z,3.799
2023-05-07T14:12:24.842Z,3.599
2023-05-07T14:13:24.618Z,3
2023-05-07T14:14:24.228Z,3.5
2023-05-07T14:15:24.783Z,3.799
2023-05-07T14:16:24.478Z,3.599
2023-05-07T14:18:24.416Z,3.5
2023-05-07T14:19:24.613Z,3.700
2023-05-07T14:20:24.029Z,3.599
2023-05-07T14:21:32.412Z,3.799
2023-05-07T14:22:24.565Z,3.5
2023-05-07T14:24:37.615Z,3.099
2023-05-07T14:25:32.404Z,3.5
2023-05-07T14:27:24.224Z,4
2023-05-07T14:28:24.538Z,3.799
2023-05-07T14:29:24.600Z,3.900
2023-05-07T14:30:24.817Z,3.700
2023-05-07T14:31:24.539Z,3.400
2023-05-07T14:32:24.216Z,3.799
2023-05-07T14:33:24.678Z,3.700
2023-05-07T14:35:38.470Z,3.299
2023-05-07T14:36:24.583Z,3.400
2023-05-07T14:38:24.337Z,4
2023-05-07T14:39:24.709Z,3.799
2023-05-07T14:40:24.538Z,3.599
2023-05-07T14:41:24.004Z,3.400
2023-05-07T14:42:24.608Z,3.299
2023-05-07T14:43:24.737Z,3.5
2023-05-07T14:44:24.083Z,3.299
2023-05-07T14:45:25.003Z,3
2023-05-07T14:46:24.104Z,3.299
2023-05-07T14:47:24.928Z,3
2023-05-07T14:48:24.734Z,2.900
2023-05-07T14:49:24.480Z,3.299
2023-05-07T14:50:24.630Z,3.099
2023-05-07T14:51:24.726Z,3
2023-05-07T14:52:24.127Z,3.099
2023-05-07T14:55:25.054Z,3.599
2023-05-07T14:56:24.462Z,3.400
2023-05-07T14:57:24.834Z,3.099
2023-05-07T14:59:24.849Z,3.200
2023-05-07T15:01:24.339Z,3.299
2023-05-07T15:02:25.102Z,3.599
2023-05-07T15:03:24.860Z,3.200
2023-05-07T15:04:24.480Z,3.400
2023-05-07T15:05:24.361Z,2.599
2023-05-07T15:06:24.749Z,2.900
2023-05-07T15:07:24.227Z,3.200
2023-05-07T15:08:24.527Z,3.299
2023-05-07T15:11:24.545Z,3.5
2023-05-07T15:12:24.324Z,4
2023-05-07T15:13:24.124Z,3.599
2023-05-07T15:14:24.270Z,3.200
2023-05-07T15:15:25.101Z,3.900
2023-05-07T15:16:25.070Z,3.799
2023-05-07T15:17:24.834Z,3
2023-05-07T15:18:24.290Z,3.200
2023-05-07T15:19:24.628Z,3.700
2023-05-07T15:20:24.335Z,3.799
2023-05-07T15:22:24.312Z,3.5
2023-05-07T15:23:24.554Z,3.200
2023-05-07T15:24:24.821Z,3.700
2023-05-07T15:25:24.362Z,3.099
2023-05-07T15:26:24.184Z,3.799
2023-05-07T15:27:24.664Z,4
2023-05-07T15:28:24.110Z,3.799
2023-05-07T15:29:24.386Z,3.700
2023-05-07T15:30:25.071Z,3.900
2023-05-07T15:33:24.235Z,4.300
2023-05-07T15:34:24.366Z,3.799
2023-05-07T15:35:24.579Z,3.599
2023-05-07T15:36:24.346Z,3.200
2023-05-07T15:37:24.454Z,3.400
2023-05-07T15:38:24.431Z,3.599
2023-05-07T15:39:25.145Z,3.5
2023-05-07T15:40:24.980Z,3.400
2023-05-07T15:41:24.439Z,3.5
2023-05-07T15:42:24.516Z,3.400
2023-05-07T15:43:24.664Z,3.200
2023-05-07T15:44:24.571Z,3.400
2023-05-07T15:45:25.220Z,3.200
2023-05-07T15:46:24.576Z,3.099
2023-05-07T15:47:24.590Z,3.299
2023-05-07T15:48:24.375Z,3.400
2023-05-07T15:49:24.505Z,2.900
2023-05-07T15:50:24.402Z,2.799
2023-05-07T15:51:24.930Z,2.700
2023-05-07T15:52:24.736Z,2.599
2023-05-07T15:54:24.334Z,2.700
2023-05-07T15:56:24.945Z,2.400
2023-05-07T15:57:24.557Z,2.599
2023-05-07T15:58:24.566Z,2.200
2023-05-07T15:59:24.432Z,2.599
2023-05-07T16:00:25.098Z,2.5
2023-05-07T16:02:29.110Z,2.700
2023-05-07T16:03:24.733Z,2.5
2023-05-07T16:04:24.447Z,2.599
2023-05-07T16:05:25.124Z,3
2023-05-07T16:06:24.955Z,2.599
2023-05-07T16:07:24.525Z,2.900
2023-05-07T16:08:24.180Z,2.5
2023-05-07T16:09:24.967Z,2.400
2023-05-07T16:10:24.915Z,2.599
2023-05-07T16:11:24.512Z,2.5
2023-05-07T16:12:24.902Z,2.599
2023-05-07T16:13:24.713Z,3.700
2023-05-07T16:14:24.594Z,3.900
2023-05-07T16:15:24.364Z,3.5
2023-05-07T16:16:24.760Z,3.900
2023-05-07T16:17:24.570Z,3.700
2023-05-07T16:18:24.215Z,3.5
2023-05-07T16:19:24.793Z,3.599
2023-05-07T16:20:24.580Z,3.400
2023-05-07T16:21:24.201Z,3.900
2023-05-07T16:22:24.621Z,4
2023-05-07T16:23:24.661Z,4.300
2023-05-07T16:24:24.375Z,4.199
2023-05-07T16:25:25.103Z,4.400
2023-05-07T16:27:24.419Z,4.5
2023-05-07T16:28:25.592Z,4.400
2023-05-07T16:29:24.553Z,3.900
2023-05-07T16:30:24.566Z,3.799
2023-05-07T16:31:24.861Z,4.199
2023-05-07T16:32:24.784Z,4.099
2023-05-07T16:33:24.489Z,3.900
2023-05-07T16:34:24.056Z,4.900
2023-05-07T16:35:24.838Z,4.199
2023-05-07T16:36:24.202Z,3.799
2023-05-07T16:37:24.644Z,4.599
2023-05-07T16:38:24.584Z,4.099
2023-05-07T16:39:24.986Z,4.5
2023-05-07T16:40:24.597Z,4.400
2023-05-07T16:41:24.663Z,4.800
2023-05-07T16:42:24.238Z,4.599
2023-05-07T16:43:24.622Z,4.400
2023-05-07T16:44:24.231Z,4.900